sensor_id;sensor_type;location;lat;lon;timestamp;pressure;altitude;pressure_sealevel;temperature;humidity
9139;BME280;4604;48.616;9.548;2022-07-03T00:02:26;97093.75;;;20.37;57.62
9139;BME280;4604;48.616;9.548;2022-07-03T00:04:53;97080.94;;;20.33;58.09
9139;BME280;4604;48.616;9.548;2022-07-03T00:07:20;97065.38;;;20.15;58.26
9139;BME280;4604;48.616;9.548;2022-07-03T00:09:48;97084.16;;;20.21;58.60
9139;BME280;4604;48.616;9.548;2022-07-03T00:12:15;97092.00;;;20.23;58.60
9139;BME280;4604;48.616;9.548;2022-07-03T00:14:42;97080.88;;;20.19;58.66
9139;BME280;4604;48.616;9.548;2022-07-03T00:17:08;97086.41;;;20.18;59.10
9139;BME280;4604;48.616;9.548;2022-07-03T00:19:36;97072.31;;;20.09;59.38
9139;BME280;4604;48.616;9.548;2022-07-03T00:22:05;97089.44;;;20.08;59.52
9139;BME280;4604;48.616;9.548;2022-07-03T00:24:40;97094.34;;;20.04;59.71
9139;BME280;4604;48.616;9.548;2022-07-03T00:27:09;97099.03;;;19.96;60.31
9139;BME280;4604;48.616;9.548;2022-07-03T00:29:40;97095.72;;;19.94;60.66
9139;BME280;4604;48.616;9.548;2022-07-03T00:32:09;97063.19;;;19.69;60.48
9139;BME280;4604;48.616;9.548;2022-07-03T00:34:39;97082.84;;;19.82;60.98
9139;BME280;4604;48.616;9.548;2022-07-03T00:37:07;97075.75;;;19.68;61.63
9139;BME280;4604;48.616;9.548;2022-07-03T00:39:36;97072.56;;;19.64;62.51
9139;BME280;4604;48.616;9.548;2022-07-03T00:42:05;97073.13;;;19.53;62.97
9139;BME280;4604;48.616;9.548;2022-07-03T00:44:34;97068.09;;;19.43;64.20
9139;BME280;4604;48.616;9.548;2022-07-03T00:47:03;97085.41;;;19.48;64.72
9139;BME280;4604;48.616;9.548;2022-07-03T00:49:33;97062.91;;;19.20;65.19
9139;BME280;4604;48.616;9.548;2022-07-03T00:52:04;97084.38;;;19.27;65.75
9139;BME280;4604;48.616;9.548;2022-07-03T00:54:33;97090.44;;;19.14;66.44
9139;BME280;4604;48.616;9.548;2022-07-03T00:57:02;97095.69;;;19.08;66.53
9139;BME280;4604;48.616;9.548;2022-07-03T00:59:29;97098.75;;;19.05;66.88
9139;BME280;4604;48.616;9.548;2022-07-03T01:02:01;97097.09;;;19.03;66.58
9139;BME280;4604;48.616;9.548;2022-07-03T01:04:42;97088.97;;;18.97;66.51
9139;BME280;4604;48.616;9.548;2022-07-03T01:07:20;97096.25;;;19.03;66.47
9139;BME280;4604;48.616;9.548;2022-07-03T01:09:55;97106.50;;;18.99;66.81
9139;BME280;4604;48.616;9.548;2022-07-03T01:12:35;97104.13;;;18.90;67.45
9139;BME280;4604;48.616;9.548;2022-07-03T01:15:09;97102.19;;;18.84;67.28
9139;BME280;4604;48.616;9.548;2022-07-03T01:17:39;97100.09;;;18.79;67.75
9139;BME280;4604;48.616;9.548;2022-07-03T01:20:07;97100.34;;;18.69;68.43
9139;BME280;4604;48.616;9.548;2022-07-03T01:22:36;97096.31;;;18.58;68.67
9139;BME280;4604;48.616;9.548;2022-07-03T01:25:13;97103.13;;;18.61;69.25
9139;BME280;4604;48.616;9.548;2022-07-03T01:28:02;97102.38;;;18.52;70.01
9139;BME280;4604;48.616;9.548;2022-07-03T01:30:32;97099.81;;;18.44;70.57
9139;BME280;4604;48.616;9.548;2022-07-03T01:33:03;97076.47;;;18.23;71.38
9139;BME280;4604;48.616;9.548;2022-07-03T01:35:33;97088.53;;;18.19;72.09
9139;BME280;4604;48.616;9.548;2022-07-03T01:38:03;97087.91;;;18.17;72.57
9139;BME280;4604;48.616;9.548;2022-07-03T01:40:35;97090.66;;;18.09;73.16
9139;BME280;4604;48.616;9.548;2022-07-03T01:43:06;97086.13;;;17.94;73.92
9139;BME280;4604;48.616;9.548;2022-07-03T01:45:36;97085.50;;;17.92;74.47
9139;BME280;4604;48.616;9.548;2022-07-03T01:48:06;97084.91;;;17.82;74.83
9139;BME280;4604;48.616;9.548;2022-07-03T01:50:34;97081.47;;;17.73;75.54
9139;BME280;4604;48.616;9.548;2022-07-03T01:53:02;97078.13;;;17.71;75.85
9139;BME280;4604;48.616;9.548;2022-07-03T01:55:31;97080.81;;;17.71;76.48
9139;BME280;4604;48.616;9.548;2022-07-03T01:57:58;97084.50;;;17.70;77.04
9139;BME280;4604;48.616;9.548;2022-07-03T02:00:27;97080.28;;;17.53;78.04
9139;BME280;4604;48.616;9.548;2022-07-03T02:02:58;97056.94;;;17.32;78.75
9139;BME280;4604;48.616;9.548;2022-07-03T02:05:34;97073.50;;;17.27;79.47
9139;BME280;4604;48.616;9.548;2022-07-03T02:08:08;97084.44;;;17.32;79.86
9139;BME280;4604;48.616;9.548;2022-07-03T02:10:39;97031.22;;;16.93;80.04
9139;BME280;4604;48.616;9.548;2022-07-03T02:13:15;97076.09;;;17.13;80.42
9139;BME280;4604;48.616;9.548;2022-07-03T02:15:45;97088.19;;;17.23;80.82
9139;BME280;4604;48.616;9.548;2022-07-03T02:18:24;97062.03;;;16.96;81.74
9139;BME280;4604;48.616;9.548;2022-07-03T02:21:03;97072.34;;;16.99;83.04
9139;BME280;4604;48.616;9.548;2022-07-03T02:23:31;97058.94;;;16.84;83.60
9139;BME280;4604;48.616;9.548;2022-07-03T02:26:02;97088.69;;;16.96;84.18
9139;BME280;4604;48.616;9.548;2022-07-03T02:28:37;97076.72;;;16.92;84.75
9139;BME280;4604;48.616;9.548;2022-07-03T02:31:12;97067.75;;;16.84;85.06
9139;BME280;4604;48.616;9.548;2022-07-03T02:33:41;97070.44;;;16.76;85.54
9139;BME280;4604;48.616;9.548;2022-07-03T02:36:10;97066.97;;;16.67;85.71
9139;BME280;4604;48.616;9.548;2022-07-03T02:38:40;97080.41;;;16.82;86.42
9139;BME280;4604;48.616;9.548;2022-07-03T02:41:14;97086.94;;;16.80;86.85
9139;BME280;4604;48.616;9.548;2022-07-03T02:43:47;97083.44;;;16.79;87.04
9139;BME280;4604;48.616;9.548;2022-07-03T02:46:21;97084.75;;;16.75;87.25
9139;BME280;4604;48.616;9.548;2022-07-03T02:49:16;97053.69;;;16.59;87.68
9139;BME280;4604;48.616;9.548;2022-07-03T02:51:49;97077.31;;;16.71;87.66
9139;BME280;4604;48.616;9.548;2022-07-03T02:54:19;97075.78;;;16.76;87.90
9139;BME280;4604;48.616;9.548;2022-07-03T02:56:54;97083.25;;;16.73;88.43
9139;BME280;4604;48.616;9.548;2022-07-03T02:59:35;97081.78;;;16.70;88.72
9139;BME280;4604;48.616;9.548;2022-07-03T03:02:14;97067.63;;;16.69;87.93
9139;BME280;4604;48.616;9.548;2022-07-03T03:04:49;97073.78;;;16.70;87.96
9139;BME280;4604;48.616;9.548;2022-07-03T03:07:21;97045.56;;;16.53;87.84
9139;BME280;4604;48.616;9.548;2022-07-03T03:09:53;97092.75;;;16.75;87.94
9139;BME280;4604;48.616;9.548;2022-07-03T03:12:27;97089.63;;;16.72;88.29
9139;BME280;4604;48.616;9.548;2022-07-03T03:15:01;97097.59;;;16.72;88.29
9139;BME280;4604;48.616;9.548;2022-07-03T03:17:36;97074.50;;;16.64;87.53
9139;BME280;4604;48.616;9.548;2022-07-03T03:20:04;97098.44;;;16.72;86.94
9139;BME280;4604;48.616;9.548;2022-07-03T03:22:39;97066.56;;;16.47;86.72
9139;BME280;4604;48.616;9.548;2022-07-03T03:25:11;97109.59;;;16.76;87.61
9139;BME280;4604;48.616;9.548;2022-07-03T03:27:38;97109.91;;;16.73;87.67
9139;BME280;4604;48.616;9.548;2022-07-03T03:30:06;97099.00;;;16.59;88.05
9139;BME280;4604;48.616;9.548;2022-07-03T03:32:35;97115.44;;;16.71;88.76
9139;BME280;4604;48.616;9.548;2022-07-03T03:35:02;97113.75;;;16.70;89.22
9139;BME280;4604;48.616;9.548;2022-07-03T03:37:30;97092.03;;;16.50;89.31
9139;BME280;4604;48.616;9.548;2022-07-03T03:39:57;97099.19;;;16.50;89.57
9139;BME280;4604;48.616;9.548;2022-07-03T03:42:24;97119.28;;;16.60;89.52
9139;BME280;4604;48.616;9.548;2022-07-03T03:44:51;97116.97;;;16.57;89.19
9139;BME280;4604;48.616;9.548;2022-07-03T03:47:17;97121.50;;;16.57;88.99
9139;BME280;4604;48.616;9.548;2022-07-03T03:49:45;97112.00;;;16.54;89.12
9139;BME280;4604;48.616;9.548;2022-07-03T03:52:12;97131.47;;;16.55;89.66
9139;BME280;4604;48.616;9.548;2022-07-03T03:54:39;97119.38;;;16.44;90.14
9139;BME280;4604;48.616;9.548;2022-07-03T03:57:16;97112.09;;;16.30;91.05
9139;BME280;4604;48.616;9.548;2022-07-03T03:59:43;97131.84;;;16.43;91.03
9139;BME280;4604;48.616;9.548;2022-07-03T04:02:09;97135.50;;;16.42;91.21
9139;BME280;4604;48.616;9.548;2022-07-03T04:04:36;97120.41;;;16.35;91.16
9139;BME280;4604;48.616;9.548;2022-07-03T04:07:04;97111.25;;;16.29;91.22
9139;BME280;4604;48.616;9.548;2022-07-03T04:09:31;97125.72;;;16.35;91.39
9139;BME280;4604;48.616;9.548;2022-07-03T04:11:58;97123.53;;;16.38;91.56
9139;BME280;4604;48.616;9.548;2022-07-03T04:14:25;97129.84;;;16.45;91.69
9139;BME280;4604;48.616;9.548;2022-07-03T04:16:52;97090.28;;;16.26;91.60
9139;BME280;4604;48.616;9.548;2022-07-03T04:19:18;97098.09;;;16.27;91.62
9139;BME280;4604;48.616;9.548;2022-07-03T04:21:45;97106.91;;;16.36;91.35
9139;BME280;4604;48.616;9.548;2022-07-03T04:24:13;97136.34;;;16.51;91.59
9139;BME280;4604;48.616;9.548;2022-07-03T04:26:40;97130.03;;;16.44;92.11
9139;BME280;4604;48.616;9.548;2022-07-03T04:29:07;97140.31;;;16.55;91.79
9139;BME280;4604;48.616;9.548;2022-07-03T04:31:33;97139.97;;;16.58;91.92
9139;BME280;4604;48.616;9.548;2022-07-03T04:34:00;97100.22;;;16.40;91.81
9139;BME280;4604;48.616;9.548;2022-07-03T04:36:27;97126.97;;;16.63;91.60
9139;BME280;4604;48.616;9.548;2022-07-03T04:38:54;97134.44;;;16.68;91.74
9139;BME280;4604;48.616;9.548;2022-07-03T04:41:22;97108.31;;;16.55;91.84
9139;BME280;4604;48.616;9.548;2022-07-03T04:43:49;97135.41;;;16.83;91.79
9139;BME280;4604;48.616;9.548;2022-07-03T04:46:15;97124.56;;;16.77;91.59
9139;BME280;4604;48.616;9.548;2022-07-03T04:48:42;97146.84;;;17.00;91.81
9139;BME280;4604;48.616;9.548;2022-07-03T04:51:09;97129.03;;;16.93;91.62
9139;BME280;4604;48.616;9.548;2022-07-03T04:53:36;97161.88;;;17.24;90.59
9139;BME280;4604;48.616;9.548;2022-07-03T04:56:03;97155.13;;;17.37;90.01
9139;BME280;4604;48.616;9.548;2022-07-03T04:58:31;97128.78;;;17.33;89.68
9139;BME280;4604;48.616;9.548;2022-07-03T05:00:57;97142.53;;;17.53;89.93
9139;BME280;4604;48.616;9.548;2022-07-03T05:03:24;97134.44;;;17.62;89.49
9139;BME280;4604;48.616;9.548;2022-07-03T05:05:52;97167.63;;;17.90;88.70
9139;BME280;4604;48.616;9.548;2022-07-03T05:08:19;97169.50;;;18.05;88.45
9139;BME280;4604;48.616;9.548;2022-07-03T05:10:45;97174.88;;;18.20;87.72
9139;BME280;4604;48.616;9.548;2022-07-03T05:13:12;97172.69;;;18.38;85.15
9139;BME280;4604;48.616;9.548;2022-07-03T05:15:40;97163.97;;;18.44;83.11
9139;BME280;4604;48.616;9.548;2022-07-03T05:18:07;97172.91;;;18.51;82.15
9139;BME280;4604;48.616;9.548;2022-07-03T05:20:34;97128.94;;;18.39;81.18
9139;BME280;4604;48.616;9.548;2022-07-03T05:23:02;97175.34;;;18.76;80.34
9139;BME280;4604;48.616;9.548;2022-07-03T05:25:30;97152.44;;;18.73;79.34
9139;BME280;4604;48.616;9.548;2022-07-03T05:27:58;97173.09;;;18.94;78.93
9139;BME280;4604;48.616;9.548;2022-07-03T05:30:25;97150.06;;;18.93;77.95
9139;BME280;4604;48.616;9.548;2022-07-03T05:32:53;97171.31;;;19.16;77.05
9139;BME280;4604;48.616;9.548;2022-07-03T05:35:20;97179.69;;;19.28;78.60
9139;BME280;4604;48.616;9.548;2022-07-03T05:37:47;97171.38;;;19.38;78.54
9139;BME280;4604;48.616;9.548;2022-07-03T05:40:14;97165.84;;;19.39;78.23
9139;BME280;4604;48.616;9.548;2022-07-03T05:42:40;97176.56;;;19.61;78.11
9139;BME280;4604;48.616;9.548;2022-07-03T05:45:08;97163.78;;;19.63;78.12
9139;BME280;4604;48.616;9.548;2022-07-03T05:47:35;97182.41;;;19.86;77.12
9139;BME280;4604;48.616;9.548;2022-07-03T05:50:04;97182.09;;;19.96;76.51
9139;BME280;4604;48.616;9.548;2022-07-03T05:52:31;97187.50;;;20.02;76.05
9139;BME280;4604;48.616;9.548;2022-07-03T05:54:57;97180.97;;;20.12;75.80
9139;BME280;4604;48.616;9.548;2022-07-03T05:57:24;97166.28;;;20.29;75.47
9139;BME280;4604;48.616;9.548;2022-07-03T05:59:51;97177.44;;;20.33;75.63
9139;BME280;4604;48.616;9.548;2022-07-03T06:02:17;97185.63;;;20.24;77.19
9139;BME280;4604;48.616;9.548;2022-07-03T06:04:44;97186.28;;;20.26;78.45
9139;BME280;4604;48.616;9.548;2022-07-03T06:07:13;97181.34;;;20.30;78.67
9139;BME280;4604;48.616;9.548;2022-07-03T06:09:42;97167.53;;;20.33;78.49
9139;BME280;4604;48.616;9.548;2022-07-03T06:12:09;97177.28;;;20.41;78.36
9139;BME280;4604;48.616;9.548;2022-07-03T06:14:36;97178.22;;;20.55;77.51
9139;BME280;4604;48.616;9.548;2022-07-03T06:17:03;97175.53;;;20.55;77.37
9139;BME280;4604;48.616;9.548;2022-07-03T06:19:30;97161.50;;;20.52;77.71
9139;BME280;4604;48.616;9.548;2022-07-03T06:21:56;97182.22;;;20.65;77.10
9139;BME280;4604;48.616;9.548;2022-07-03T06:24:24;97183.59;;;20.83;75.47
9139;BME280;4604;48.616;9.548;2022-07-03T06:26:51;97180.19;;;21.02;73.00
9139;BME280;4604;48.616;9.548;2022-07-03T06:29:18;97165.69;;;20.97;72.54
9139;BME280;4604;48.616;9.548;2022-07-03T06:31:45;97174.81;;;21.09;70.28
9139;BME280;4604;48.616;9.548;2022-07-03T06:34:11;97175.03;;;21.07;68.97
9139;BME280;4604;48.616;9.548;2022-07-03T06:36:38;97156.50;;;21.19;69.07
9139;BME280;4604;48.616;9.548;2022-07-03T06:39:05;97182.63;;;21.45;69.16
9139;BME280;4604;48.616;9.548;2022-07-03T06:41:33;97172.75;;;21.52;68.24
9139;BME280;4604;48.616;9.548;2022-07-03T06:43:59;97168.81;;;21.55;67.09
9139;BME280;4604;48.616;9.548;2022-07-03T06:46:26;97114.00;;;21.29;66.86
9139;BME280;4604;48.616;9.548;2022-07-03T06:48:53;97179.03;;;21.86;66.94
9139;BME280;4604;48.616;9.548;2022-07-03T06:51:20;97180.91;;;22.06;67.50
9139;BME280;4604;48.616;9.548;2022-07-03T06:53:46;97149.91;;;21.90;67.88
9139;BME280;4604;48.616;9.548;2022-07-03T06:56:13;97186.94;;;22.28;67.83
9139;BME280;4604;48.616;9.548;2022-07-03T06:58:41;97183.00;;;22.37;66.43
9139;BME280;4604;48.616;9.548;2022-07-03T07:01:08;97162.53;;;22.29;66.35
9139;BME280;4604;48.616;9.548;2022-07-03T07:03:35;97172.03;;;22.45;65.77
9139;BME280;4604;48.616;9.548;2022-07-03T07:06:01;97178.00;;;22.60;66.03
9139;BME280;4604;48.616;9.548;2022-07-03T07:08:28;97177.81;;;22.69;65.63
9139;BME280;4604;48.616;9.548;2022-07-03T07:10:55;97195.97;;;22.93;63.76
9139;BME280;4604;48.616;9.548;2022-07-03T07:13:22;97180.44;;;22.89;61.80
9139;BME280;4604;48.616;9.548;2022-07-03T07:15:50;97204.03;;;22.86;61.34
9139;BME280;4604;48.616;9.548;2022-07-03T07:18:17;97171.75;;;22.80;61.27
9139;BME280;4604;48.616;9.548;2022-07-03T07:20:44;97192.03;;;23.02;61.16
9139;BME280;4604;48.616;9.548;2022-07-03T07:23:10;97197.16;;;23.24;61.61
9139;BME280;4604;48.616;9.548;2022-07-03T07:25:37;97194.81;;;23.34;58.30
9139;BME280;4604;48.616;9.548;2022-07-03T07:28:04;97141.72;;;23.03;56.77
9139;BME280;4604;48.616;9.548;2022-07-03T07:30:30;97188.72;;;23.52;57.36
9139;BME280;4604;48.616;9.548;2022-07-03T07:32:58;97190.03;;;23.81;55.98
9139;BME280;4604;48.616;9.548;2022-07-03T07:35:25;97205.16;;;23.82;54.90
9139;BME280;4604;48.616;9.548;2022-07-03T07:37:52;97167.53;;;23.62;54.52
9139;BME280;4604;48.616;9.548;2022-07-03T07:40:19;97139.00;;;23.48;50.36
9139;BME280;4604;48.616;9.548;2022-07-03T07:42:45;97204.31;;;23.88;47.67
9139;BME280;4604;48.616;9.548;2022-07-03T07:45:12;97206.66;;;23.78;48.31
9139;BME280;4604;48.616;9.548;2022-07-03T07:47:39;97203.88;;;23.91;48.02
9139;BME280;4604;48.616;9.548;2022-07-03T07:50:08;97203.91;;;23.85;48.22
9139;BME280;4604;48.616;9.548;2022-07-03T07:52:35;97192.78;;;24.06;48.59
9139;BME280;4604;48.616;9.548;2022-07-03T07:55:02;97189.66;;;24.09;49.16
9139;BME280;4604;48.616;9.548;2022-07-03T07:57:34;97197.97;;;24.33;48.52
9139;BME280;4604;48.616;9.548;2022-07-03T08:00:05;97167.59;;;24.19;47.62
9139;BME280;4604;48.616;9.548;2022-07-03T08:02:32;97169.84;;;24.22;47.47
9139;BME280;4604;48.616;9.548;2022-07-03T08:05:18;97196.78;;;24.54;47.00
9139;BME280;4604;48.616;9.548;2022-07-03T08:08:06;97189.03;;;24.32;46.20
9139;BME280;4604;48.616;9.548;2022-07-03T08:10:37;97209.38;;;24.60;44.79
9139;BME280;4604;48.616;9.548;2022-07-03T08:13:05;97171.03;;;24.58;43.24
9139;BME280;4604;48.616;9.548;2022-07-03T08:15:32;97172.50;;;24.72;44.43
9139;BME280;4604;48.616;9.548;2022-07-03T08:17:59;97197.19;;;24.94;44.57
9139;BME280;4604;48.616;9.548;2022-07-03T08:20:27;97197.25;;;24.69;44.54
9139;BME280;4604;48.616;9.548;2022-07-03T08:22:55;97201.63;;;24.89;45.50
9139;BME280;4604;48.616;9.548;2022-07-03T08:25:22;97190.53;;;24.78;45.33
9139;BME280;4604;48.616;9.548;2022-07-03T08:27:48;97194.34;;;24.89;43.77
9139;BME280;4604;48.616;9.548;2022-07-03T08:30:15;97191.91;;;24.88;45.22
9139;BME280;4604;48.616;9.548;2022-07-03T08:32:43;97176.50;;;24.88;44.65
9139;BME280;4604;48.616;9.548;2022-07-03T08:35:10;97206.31;;;25.18;42.83
9139;BME280;4604;48.616;9.548;2022-07-03T08:37:39;97195.19;;;25.08;43.34
9139;BME280;4604;48.616;9.548;2022-07-03T08:40:09;97192.22;;;25.35;44.50
9139;BME280;4604;48.616;9.548;2022-07-03T08:42:38;97191.06;;;25.42;42.26
9139;BME280;4604;48.616;9.548;2022-07-03T08:45:06;97191.84;;;25.31;41.15
9139;BME280;4604;48.616;9.548;2022-07-03T08:47:33;97188.41;;;25.24;40.58
9139;BME280;4604;48.616;9.548;2022-07-03T08:50:01;97185.47;;;25.26;39.79
9139;BME280;4604;48.616;9.548;2022-07-03T08:52:28;97169.75;;;25.16;41.03
9139;BME280;4604;48.616;9.548;2022-07-03T08:54:57;97187.13;;;25.27;40.55
9139;BME280;4604;48.616;9.548;2022-07-03T08:57:24;97190.41;;;25.29;39.81
9139;BME280;4604;48.616;9.548;2022-07-03T08:59:52;97187.34;;;25.25;39.45
9139;BME280;4604;48.616;9.548;2022-07-03T09:02:20;97164.28;;;25.04;38.45
9139;BME280;4604;48.616;9.548;2022-07-03T09:04:48;97186.88;;;25.28;40.46
9139;BME280;4604;48.616;9.548;2022-07-03T09:07:17;97188.31;;;25.31;39.50
9139;BME280;4604;48.616;9.548;2022-07-03T09:09:44;97190.59;;;25.46;38.14
9139;BME280;4604;48.616;9.548;2022-07-03T09:12:12;97186.59;;;25.67;39.00
9139;BME280;4604;48.616;9.548;2022-07-03T09:14:39;97180.03;;;25.74;37.28
9139;BME280;4604;48.616;9.548;2022-07-03T09:17:06;97172.00;;;25.86;37.25
9139;BME280;4604;48.616;9.548;2022-07-03T09:19:40;97184.25;;;25.89;38.31
9139;BME280;4604;48.616;9.548;2022-07-03T09:22:20;97176.63;;;26.09;37.57
9139;BME280;4604;48.616;9.548;2022-07-03T09:24:48;97187.25;;;26.22;37.68
9139;BME280;4604;48.616;9.548;2022-07-03T09:27:18;97179.34;;;25.79;36.53
9139;BME280;4604;48.616;9.548;2022-07-03T09:29:57;97182.44;;;25.82;37.38
9139;BME280;4604;48.616;9.548;2022-07-03T09:32:31;97180.63;;;25.95;37.88
9139;BME280;4604;48.616;9.548;2022-07-03T09:35:13;97181.47;;;26.19;36.37
9139;BME280;4604;48.616;9.548;2022-07-03T09:37:41;97167.03;;;26.25;36.65
9139;BME280;4604;48.616;9.548;2022-07-03T09:40:08;97176.69;;;26.33;35.88
9139;BME280;4604;48.616;9.548;2022-07-03T09:42:36;97170.59;;;26.49;37.03
9139;BME280;4604;48.616;9.548;2022-07-03T09:45:04;97164.34;;;26.72;36.90
9139;BME280;4604;48.616;9.548;2022-07-03T09:47:31;97171.97;;;26.40;36.39
9139;BME280;4604;48.616;9.548;2022-07-03T09:49:59;97178.66;;;26.25;36.13
9139;BME280;4604;48.616;9.548;2022-07-03T09:52:36;97170.19;;;26.10;35.62
9139;BME280;4604;48.616;9.548;2022-07-03T09:55:16;97165.75;;;26.51;36.87
9139;BME280;4604;48.616;9.548;2022-07-03T09:57:46;97155.53;;;26.65;37.07
9139;BME280;4604;48.616;9.548;2022-07-03T10:00:25;97165.31;;;26.78;35.15
9139;BME280;4604;48.616;9.548;2022-07-03T10:02:57;97102.53;;;26.45;36.28
9139;BME280;4604;48.616;9.548;2022-07-03T10:05:25;97164.91;;;27.09;38.40
9139;BME280;4604;48.616;9.548;2022-07-03T10:07:54;97168.06;;;27.06;35.16
9139;BME280;4604;48.616;9.548;2022-07-03T10:10:23;97167.59;;;27.21;36.98
9139;BME280;4604;48.616;9.548;2022-07-03T10:12:52;97160.53;;;27.32;36.88
9139;BME280;4604;48.616;9.548;2022-07-03T10:15:20;97164.19;;;27.26;35.57
9139;BME280;4604;48.616;9.548;2022-07-03T10:17:48;97158.97;;;27.36;35.86
9139;BME280;4604;48.616;9.548;2022-07-03T10:20:23;97154.09;;;26.98;35.79
9139;BME280;4604;48.616;9.548;2022-07-03T10:22:51;97169.03;;;27.12;35.75
9139;BME280;4604;48.616;9.548;2022-07-03T10:25:18;97157.72;;;27.27;36.83
9139;BME280;4604;48.616;9.548;2022-07-03T10:27:45;97163.19;;;27.44;37.27
9139;BME280;4604;48.616;9.548;2022-07-03T10:30:16;97148.78;;;27.43;37.19
9139;BME280;4604;48.616;9.548;2022-07-03T10:32:44;97169.94;;;27.41;36.32
9139;BME280;4604;48.616;9.548;2022-07-03T10:35:13;97161.44;;;27.66;36.04
9139;BME280;4604;48.616;9.548;2022-07-03T10:37:50;97159.91;;;27.70;33.27
9139;BME280;4604;48.616;9.548;2022-07-03T10:40:30;97146.75;;;27.50;33.81
9139;BME280;4604;48.616;9.548;2022-07-03T10:43:23;97158.50;;;27.39;33.87
9139;BME280;4604;48.616;9.548;2022-07-03T10:46:10;97150.78;;;27.77;34.94
9139;BME280;4604;48.616;9.548;2022-07-03T10:49:00;97159.31;;;27.68;32.47
9139;BME280;4604;48.616;9.548;2022-07-03T10:51:29;97160.50;;;27.44;31.50
9139;BME280;4604;48.616;9.548;2022-07-03T10:54:12;97152.00;;;27.40;32.37
9139;BME280;4604;48.616;9.548;2022-07-03T11:00:08;97138.53;;;28.03;33.39
9139;BME280;4604;48.616;9.548;2022-07-03T11:02:40;97156.63;;;27.97;31.75
9139;BME280;4604;48.616;9.548;2022-07-03T11:05:18;97150.66;;;27.83;32.24
9139;BME280;4604;48.616;9.548;2022-07-03T11:08:08;97150.41;;;27.85;31.90
9139;BME280;4604;48.616;9.548;2022-07-03T11:10:38;97144.69;;;27.98;32.47
9139;BME280;4604;48.616;9.548;2022-07-03T11:13:15;97148.16;;;27.53;31.68
9139;BME280;4604;48.616;9.548;2022-07-03T11:15:45;97142.59;;;27.60;32.01
9139;BME280;4604;48.616;9.548;2022-07-03T11:18:18;97137.09;;;27.83;34.61
9139;BME280;4604;48.616;9.548;2022-07-03T11:24:18;97129.88;;;27.89;32.34
9139;BME280;4604;48.616;9.548;2022-07-03T11:27:14;97135.59;;;27.75;31.81
9139;BME280;4604;48.616;9.548;2022-07-03T11:29:48;97117.69;;;27.91;32.37
9139;BME280;4604;48.616;9.548;2022-07-03T11:32:46;97125.34;;;28.11;33.50
9139;BME280;4604;48.616;9.548;2022-07-03T11:35:44;97128.91;;;27.95;32.92
9139;BME280;4604;48.616;9.548;2022-07-03T11:38:14;97117.97;;;27.90;32.57
9139;BME280;4604;48.616;9.548;2022-07-03T11:40:42;97114.03;;;27.98;33.18
9139;BME280;4604;48.616;9.548;2022-07-03T11:43:10;97114.69;;;28.22;33.15
9139;BME280;4604;48.616;9.548;2022-07-03T11:45:38;97117.13;;;28.23;32.72
9139;BME280;4604;48.616;9.548;2022-07-03T11:48:07;97106.78;;;28.20;33.40
9139;BME280;4604;48.616;9.548;2022-07-03T11:50:39;97104.56;;;28.17;33.04
9139;BME280;4604;48.616;9.548;2022-07-03T11:53:25;97100.19;;;28.50;33.50
9139;BME280;4604;48.616;9.548;2022-07-03T11:55:54;97089.59;;;28.48;34.26
9139;BME280;4604;48.616;9.548;2022-07-03T11:58:22;97096.31;;;28.46;31.63
9139;BME280;4604;48.616;9.548;2022-07-03T12:00:49;97079.50;;;28.66;32.29
9139;BME280;4604;48.616;9.548;2022-07-03T12:03:22;97091.50;;;28.70;31.16
9139;BME280;4604;48.616;9.548;2022-07-03T12:05:53;97083.31;;;28.48;32.07
9139;BME280;4604;48.616;9.548;2022-07-03T12:08:29;97068.09;;;28.30;31.63
9139;BME280;4604;48.616;9.548;2022-07-03T12:11:01;97089.31;;;28.50;31.24
9139;BME280;4604;48.616;9.548;2022-07-03T12:13:29;97094.44;;;28.46;31.15
9139;BME280;4604;48.616;9.548;2022-07-03T12:16:08;97086.59;;;28.50;31.16
9139;BME280;4604;48.616;9.548;2022-07-03T12:18:46;97097.97;;;28.47;31.01
9139;BME280;4604;48.616;9.548;2022-07-03T12:21:13;97089.72;;;28.58;31.74
9139;BME280;4604;48.616;9.548;2022-07-03T12:23:43;97089.03;;;28.68;31.37
9139;BME280;4604;48.616;9.548;2022-07-03T12:26:11;97080.81;;;28.63;31.25
9139;BME280;4604;48.616;9.548;2022-07-03T12:28:38;97078.66;;;28.87;31.33
9139;BME280;4604;48.616;9.548;2022-07-03T12:31:05;97077.59;;;28.88;31.44
9139;BME280;4604;48.616;9.548;2022-07-03T12:33:32;97055.25;;;28.81;31.56
9139;BME280;4604;48.616;9.548;2022-07-03T12:36:05;97066.56;;;28.95;31.50
9139;BME280;4604;48.616;9.548;2022-07-03T12:38:32;97055.22;;;29.03;31.09
9139;BME280;4604;48.616;9.548;2022-07-03T12:41:04;97060.16;;;28.84;30.70
9139;BME280;4604;48.616;9.548;2022-07-03T12:43:39;97063.22;;;29.10;32.25
9139;BME280;4604;48.616;9.548;2022-07-03T12:46:24;97059.13;;;29.07;30.65
9139;BME280;4604;48.616;9.548;2022-07-03T12:48:52;97055.13;;;28.93;30.07
9139;BME280;4604;48.616;9.548;2022-07-03T12:51:39;97046.91;;;28.88;30.42
9139;BME280;4604;48.616;9.548;2022-07-03T12:54:06;97055.13;;;28.93;30.76
9139;BME280;4604;48.616;9.548;2022-07-03T12:56:34;97049.69;;;28.93;31.04
9139;BME280;4604;48.616;9.548;2022-07-03T12:59:01;97029.00;;;28.70;30.98
9139;BME280;4604;48.616;9.548;2022-07-03T13:01:43;97038.91;;;29.03;32.74
9139;BME280;4604;48.616;9.548;2022-07-03T13:04:10;97025.56;;;29.01;30.60
9139;BME280;4604;48.616;9.548;2022-07-03T13:06:40;97027.78;;;29.27;32.60
9139;BME280;4604;48.616;9.548;2022-07-03T13:09:06;97042.19;;;29.27;30.64
9139;BME280;4604;48.616;9.548;2022-07-03T13:11:36;97039.00;;;29.35;30.72
9139;BME280;4604;48.616;9.548;2022-07-03T13:14:05;97038.66;;;29.54;32.39
9139;BME280;4604;48.616;9.548;2022-07-03T13:16:40;97043.09;;;29.65;30.14
9139;BME280;4604;48.616;9.548;2022-07-03T13:19:09;97034.88;;;29.60;29.88
9139;BME280;4604;48.616;9.548;2022-07-03T13:21:37;97031.59;;;29.58;30.80
9139;BME280;4604;48.616;9.548;2022-07-03T13:24:04;97020.84;;;29.68;31.08
9139;BME280;4604;48.616;9.548;2022-07-03T13:26:31;97040.84;;;29.84;30.84
9139;BME280;4604;48.616;9.548;2022-07-03T13:29:00;97023.22;;;29.64;29.40
9139;BME280;4604;48.616;9.548;2022-07-03T13:31:27;97040.28;;;29.82;30.46
9139;BME280;4604;48.616;9.548;2022-07-03T13:33:55;97034.19;;;30.02;29.89
9139;BME280;4604;48.616;9.548;2022-07-03T13:36:21;97018.97;;;30.11;30.28
9139;BME280;4604;48.616;9.548;2022-07-03T13:38:48;97022.25;;;30.13;30.10
9139;BME280;4604;48.616;9.548;2022-07-03T13:41:15;97018.97;;;30.11;30.17
9139;BME280;4604;48.616;9.548;2022-07-03T13:43:44;97030.59;;;30.34;30.46
9139;BME280;4604;48.616;9.548;2022-07-03T13:46:12;97023.25;;;30.34;29.16